createdAt,value
2019-06-20T00:00:29.846Z,82.65
2019-06-20T00:02:55.709Z,82.23
2019-06-20T00:05:21.870Z,82.19
2019-06-20T00:07:47.723Z,82.72
2019-06-20T00:10:13.603Z,82.79
2019-06-20T00:12:39.456Z,82.11
2019-06-20T00:15:05.411Z,82.30
2019-06-20T00:17:31.276Z,82.31
2019-06-20T00:19:57.134Z,83.38
2019-06-20T00:22:22.991Z,84.03
2019-06-20T00:24:48.862Z,84.14
2019-06-20T00:27:14.808Z,84.19
2019-06-20T00:29:40.667Z,85.34
2019-06-20T00:32:06.635Z,85.13
2019-06-20T00:34:32.511Z,84.95
2019-06-20T00:36:58.358Z,83.43
2019-06-20T00:39:24.226Z,83.69
2019-06-20T00:41:50.095Z,84.49
2019-06-20T00:44:15.960Z,85.82
2019-06-20T00:46:41.818Z,85.03
2019-06-20T00:49:07.684Z,85.67
2019-06-20T00:51:33.552Z,85.54
2019-06-20T00:53:59.420Z,84.12
2019-06-20T00:56:25.278Z,84.62
2019-06-20T00:58:51.127Z,85.38
2019-06-20T01:01:16.994Z,84.43
2019-06-20T01:03:42.854Z,84.73
2019-06-20T01:06:08.695Z,84.80
2019-06-20T01:08:34.574Z,85.16
2019-06-20T01:11:00.427Z,85.61
2019-06-20T01:13:33.743Z,86.17
2019-06-20T01:15:54.055Z,85.02
2019-06-20T01:18:19.905Z,84.79
2019-06-20T01:20:45.761Z,83.73
2019-06-20T01:23:11.623Z,84.12
2019-06-20T01:25:40.198Z,84.30
2019-06-20T01:28:06.543Z,84.35
2019-06-20T01:30:32.393Z,84.05
2019-06-20T01:32:58.347Z,84.03
2019-06-20T01:35:24.244Z,85.04
2019-06-20T01:37:50.094Z,85.75
2019-06-20T01:40:16.871Z,85.99
2019-06-20T01:42:42.727Z,86.09
2019-06-20T01:45:08.778Z,85.42
2019-06-20T01:47:34.735Z,85.25
2019-06-20T01:50:00.690Z,85.97
2019-06-20T01:52:26.557Z,86.11
2019-06-20T01:54:52.412Z,85.91
2019-06-20T01:57:18.271Z,86.48
2019-06-20T01:59:44.127Z,86.77
2019-06-20T02:02:10.020Z,86.49
2019-06-20T02:04:35.841Z,86.36
2019-06-20T02:07:01.698Z,86.31
2019-06-20T02:09:27.553Z,86.03
2019-06-20T02:11:53.415Z,85.80
2019-06-20T02:14:19.299Z,85.30
2019-06-20T02:16:45.151Z,84.86
2019-06-20T02:19:11.011Z,84.49
2019-06-20T02:21:36.879Z,83.71
2019-06-20T02:24:03.132Z,83.46
2019-06-20T02:26:28.997Z,83.22
2019-06-20T02:28:54.862Z,84.06
2019-06-20T02:31:20.816Z,83.76
2019-06-20T02:33:46.628Z,83.46
2019-06-20T02:36:12.476Z,83.59
2019-06-20T02:38:38.337Z,83.10
2019-06-20T02:41:04.185Z,82.72
2019-06-20T02:43:30.134Z,83.35
2019-06-20T02:45:56.163Z,83.18
2019-06-20T02:48:22.002Z,83.01
2019-06-20T02:50:48.046Z,82.53
2019-06-20T02:53:13.903Z,82.38
2019-06-20T02:55:39.862Z,82.54
2019-06-20T02:58:05.746Z,82.55
2019-06-20T03:00:54.281Z,84.04
2019-06-20T03:03:20.146Z,83.59
2019-06-20T03:05:46.098Z,82.59
2019-06-20T03:08:11.949Z,82.31
2019-06-20T03:10:37.804Z,83.14
2019-06-20T03:13:03.656Z,82.97
2019-06-20T03:15:29.509Z,82.79
2019-06-20T03:17:55.367Z,82.78
2019-06-20T03:20:21.219Z,82.19
2019-06-20T03:22:47.066Z,82.80
2019-06-20T03:25:14.332Z,83.78
2019-06-20T03:27:40.191Z,83.27
2019-06-20T03:30:06.338Z,83.42
2019-06-20T03:32:32.195Z,82.82
2019-06-20T03:34:58.134Z,82.65
2019-06-20T03:37:24.335Z,83.40
2019-06-20T03:39:50.182Z,83.31
2019-06-20T03:42:16.041Z,82.88
2019-06-20T03:44:41.899Z,82.92
2019-06-20T03:47:07.731Z,83.20
2019-06-20T03:49:33.596Z,82.89
2019-06-20T03:51:59.518Z,82.83
2019-06-20T03:54:25.371Z,83.13
2019-06-20T03:56:51.239Z,82.93
2019-06-20T03:59:17.077Z,83.39
2019-06-20T04:01:42.925Z,83.28
2019-06-20T04:04:08.777Z,83.52
2019-06-20T04:06:34.629Z,83.06
2019-06-20T04:09:00.490Z,82.86
2019-06-20T04:11:26.359Z,84.13
2019-06-20T04:13:52.223Z,83.25
2019-06-20T04:16:18.122Z,82.29
2019-06-20T04:18:43.986Z,82.20
2019-06-20T04:21:09.820Z,83.74
2019-06-20T04:23:35.699Z,83.92
2019-06-20T04:26:01.562Z,83.57
2019-06-20T04:28:27.414Z,83.07
2019-06-20T04:30:53.273Z,84.14
2019-06-20T04:33:19.183Z,83.23
2019-06-20T04:35:45.004Z,82.97
2019-06-20T04:38:10.978Z,82.55
2019-06-20T04:40:36.839Z,82.51
2019-06-20T04:43:02.692Z,82.26
2019-06-20T04:45:35.971Z,81.69
2019-06-20T04:48:01.821Z,81.94
2019-06-20T04:50:27.674Z,81.45
2019-06-20T04:52:53.515Z,82.26
2019-06-20T04:55:19.471Z,81.90
2019-06-20T04:57:45.331Z,81.56
2019-06-20T05:00:11.285Z,81.74
2019-06-20T05:02:37.148Z,82.33
2019-06-20T05:05:04.995Z,81.97
2019-06-20T05:07:30.938Z,82.11
2019-06-20T05:09:56.804Z,81.61
2019-06-20T05:12:22.690Z,81.68
2019-06-20T05:14:48.519Z,80.71
2019-06-20T05:17:14.359Z,80.91
2019-06-20T05:19:40.246Z,80.97
2019-06-20T05:22:06.097Z,80.83
2019-06-20T05:24:31.950Z,81.54
2019-06-20T05:26:57.834Z,80.87
2019-06-20T05:29:23.660Z,81.12
2019-06-20T05:31:49.523Z,80.79
2019-06-20T05:34:15.379Z,81.46
2019-06-20T05:36:41.261Z,81.34
2019-06-20T05:39:07.129Z,81.37
2019-06-20T05:41:32.990Z,81.26
2019-06-20T05:43:58.860Z,79.98
2019-06-20T05:46:24.724Z,80.56
2019-06-20T05:48:50.587Z,79.33
2019-06-20T05:51:16.453Z,78.95
2019-06-20T05:53:42.405Z,77.43
2019-06-20T05:56:08.749Z,77.64
2019-06-20T05:58:34.731Z,76.63
2019-06-20T06:01:00.614Z,75.14
2019-06-20T06:03:26.499Z,75.54
2019-06-20T06:05:52.371Z,75.41
2019-06-20T06:08:18.222Z,75.54
2019-06-20T06:10:44.377Z,74.72
2019-06-20T06:13:10.252Z,75.35
2019-06-20T06:15:36.136Z,73.49
2019-06-20T06:18:02.261Z,73.73
2019-06-20T06:20:28.332Z,73.42
2019-06-20T06:22:54.196Z,73.46
2019-06-20T06:25:20.066Z,73.79
2019-06-20T06:27:45.927Z,73.70
2019-06-20T06:30:12.782Z,74.25
2019-06-20T06:32:40.489Z,74.39
2019-06-20T06:35:08.624Z,75.08
2019-06-20T06:37:35.339Z,75.51
2019-06-20T06:40:09.469Z,74.50
2019-06-20T06:42:35.327Z,74.77
2019-06-20T06:45:01.383Z,74.86
2019-06-20T06:47:27.239Z,74.92
2019-06-20T06:49:53.135Z,75.45
2019-06-20T06:52:19.040Z,74.94
2019-06-20T06:54:44.885Z,74.56
2019-06-20T06:57:10.742Z,74.56
2019-06-20T06:59:36.598Z,74.61
2019-06-20T07:02:02.756Z,74.54
2019-06-20T07:04:28.602Z,75.15
2019-06-20T07:06:54.464Z,74.76
2019-06-20T07:09:20.331Z,75.09
2019-06-20T07:11:46.191Z,74.32
2019-06-20T07:14:12.060Z,73.92
2019-06-20T07:16:37.912Z,74.25
2019-06-20T07:19:03.759Z,72.73
2019-06-20T07:21:29.627Z,73.16
2019-06-20T07:23:55.479Z,72.94
2019-06-20T07:26:24.259Z,72.76
2019-06-20T07:28:51.599Z,73.16
2019-06-20T07:31:17.540Z,73.46
2019-06-20T07:33:43.426Z,73.72
2019-06-20T07:36:09.290Z,72.37
2019-06-20T07:38:35.152Z,70.81
2019-06-20T07:41:01.024Z,70.61
2019-06-20T07:43:26.987Z,71.49
2019-06-20T07:46:02.684Z,69.08
2019-06-20T07:48:20.679Z,68.72
2019-06-20T07:50:46.597Z,69.03
2019-06-20T07:53:12.513Z,68.88
2019-06-20T07:55:38.364Z,69.19
2019-06-20T07:58:04.284Z,68.94
2019-06-20T08:00:30.132Z,68.28
2019-06-20T08:02:55.993Z,66.07
2019-06-20T08:05:21.946Z,65.57
2019-06-20T08:07:47.860Z,65.99
2019-06-20T08:10:14.516Z,65.78
2019-06-20T08:12:40.387Z,65.94
2019-06-20T08:15:14.920Z,65.05
2019-06-20T08:17:35.869Z,65.47
2019-06-20T08:20:04.776Z,67.17
2019-06-20T08:22:30.663Z,66.43
2019-06-20T08:24:56.783Z,66.48
2019-06-20T08:27:24.567Z,65.49
2019-06-20T08:29:50.426Z,65.31
2019-06-20T08:32:16.302Z,64.44
2019-06-20T08:34:42.313Z,64.21
2019-06-20T08:37:08.166Z,64.04
2019-06-20T08:39:34.034Z,62.59
2019-06-20T08:42:00.493Z,61.84
2019-06-20T08:44:26.444Z,61.33
2019-06-20T08:46:52.341Z,62.08
2019-06-20T08:49:18.308Z,61.90
2019-06-20T08:51:44.133Z,61.34
2019-06-20T08:54:10.011Z,61.65
2019-06-20T08:56:35.884Z,62.11
2019-06-20T08:59:02.602Z,63.66
2019-06-20T09:01:28.482Z,64.21
2019-06-20T09:03:55.657Z,64.76
2019-06-20T09:06:22.133Z,64.96
2019-06-20T09:08:47.990Z,64.68
2019-06-20T09:11:13.845Z,64.71
2019-06-20T09:13:40.641Z,64.98
2019-06-20T09:16:06.658Z,64.40
2019-06-20T09:18:32.530Z,65.36
2019-06-20T09:20:58.381Z,65.36
2019-06-20T09:23:24.235Z,65.41
2019-06-20T09:25:51.134Z,64.77
2019-06-20T09:28:17.884Z,65.93
2019-06-20T09:30:43.850Z,65.94
2019-06-20T09:33:09.711Z,66.44
2019-06-20T09:35:35.765Z,66.65
2019-06-20T09:38:01.718Z,66.10
2019-06-20T09:40:27.896Z,66.42
2019-06-20T09:42:54.502Z,66.73
2019-06-20T09:45:20.806Z,65.51
2019-06-20T09:47:46.664Z,66.11
2019-06-20T09:50:13.547Z,65.73
2019-06-20T09:52:39.494Z,65.89
2019-06-20T09:55:06.375Z,65.30
2019-06-20T09:57:32.264Z,65.52
2019-06-20T10:00:07.594Z,64.36
2019-06-20T10:02:25.892Z,64.15
2019-06-20T10:04:52.370Z,63.93
2019-06-20T10:07:18.310Z,63.15
2019-06-20T10:09:46.649Z,62.54
2019-06-20T10:12:11.945Z,62.67
2019-06-20T10:14:37.809Z,62.32
2019-06-20T10:17:03.662Z,61.51
2019-06-20T10:19:29.512Z,61.42
2019-06-20T10:21:56.047Z,61.44
2019-06-20T10:24:21.929Z,61.16
2019-06-20T10:26:49.531Z,62.15
2019-06-20T10:29:15.528Z,60.28
2019-06-20T10:31:41.384Z,60.08
2019-06-20T10:34:07.247Z,62.14
2019-06-20T10:36:33.099Z,60.91
2019-06-20T10:38:58.962Z,60.02
2019-06-20T10:41:24.913Z,58.64
2019-06-20T10:43:51.758Z,58.93
2019-06-20T10:46:17.832Z,59.23
2019-06-20T10:48:44.360Z,58.92
2019-06-20T10:51:28.828Z,59.51
2019-06-20T10:53:54.800Z,58.87
2019-06-20T10:56:20.625Z,58.95
2019-06-20T10:58:46.473Z,58.88
2019-06-20T11:01:12.317Z,60.52
2019-06-20T11:03:39.444Z,60.88
2019-06-20T11:06:05.950Z,59.89
2019-06-20T11:08:31.799Z,59.63
2019-06-20T11:10:57.664Z,59.32
2019-06-20T11:13:23.519Z,59.06
2019-06-20T11:15:49.356Z,57.59
2019-06-20T11:18:15.217Z,57.65
2019-06-20T11:20:42.662Z,57.84
2019-06-20T11:23:08.653Z,57.12
2019-06-20T11:25:34.518Z,57.37
2019-06-20T11:28:00.398Z,57.47
2019-06-20T11:30:28.946Z,58.02
2019-06-20T11:32:54.823Z,57.40
2019-06-20T11:35:20.671Z,58.81
2019-06-20T11:37:47.205Z,58.24
2019-06-20T11:40:14.503Z,58.36
2019-06-20T11:42:40.369Z,58.48
2019-06-20T11:45:06.937Z,59.39
2019-06-20T11:47:34.944Z,59.19
2019-06-20T11:50:00.605Z,57.96
2019-06-20T11:52:26.490Z,57.27
2019-06-20T11:54:52.341Z,57.44
2019-06-20T11:57:18.633Z,58.29
2019-06-20T11:59:44.500Z,59.15
2019-06-20T12:02:10.370Z,59.15
2019-06-20T12:04:36.235Z,59.53
2019-06-20T12:07:02.078Z,58.85
2019-06-20T12:09:27.933Z,58.05
2019-06-20T12:11:53.787Z,58.02
2019-06-20T12:14:19.651Z,59.37
2019-06-20T12:16:46.430Z,58.86
2019-06-20T12:19:12.389Z,59.30
2019-06-20T12:21:39.736Z,59.63
2019-06-20T12:24:08.525Z,63.01
2019-06-20T12:26:33.864Z,63.01
2019-06-20T12:28:59.720Z,64.66
2019-06-20T12:31:25.589Z,64.82
2019-06-20T12:33:51.444Z,64.75
2019-06-20T12:36:17.307Z,65.24
2019-06-20T12:38:43.280Z,65.69
2019-06-20T12:41:09.107Z,65.88
2019-06-20T12:43:34.960Z,65.23
2019-06-20T12:46:00.822Z,64.69
2019-06-20T12:48:26.682Z,64.98
2019-06-20T12:50:52.540Z,65.03
2019-06-20T12:53:18.427Z,64.97
2019-06-20T12:55:45.761Z,64.57
2019-06-20T12:58:11.734Z,63.63
2019-06-20T13:00:39.581Z,63.12
2019-06-20T13:03:05.535Z,62.60
2019-06-20T13:05:31.521Z,61.14
2019-06-20T13:07:57.389Z,61.44
2019-06-20T13:10:23.250Z,61.74
2019-06-20T13:12:49.103Z,62.00
2019-06-20T13:15:16.965Z,61.80
2019-06-20T13:17:43.656Z,61.97
2019-06-20T13:20:12.887Z,61.46
2019-06-20T13:22:39.518Z,59.61
2019-06-20T13:25:07.017Z,58.43
2019-06-20T13:27:32.907Z,57.95
2019-06-20T13:29:58.786Z,58.08
2019-06-20T13:32:24.643Z,57.84
2019-06-20T13:34:50.499Z,56.75
2019-06-20T13:37:16.376Z,57.68
2019-06-20T13:39:43.337Z,55.36
2019-06-20T13:42:09.205Z,56.54
2019-06-20T13:44:35.091Z,55.55
2019-06-20T13:47:00.953Z,55.24
2019-06-20T13:49:26.810Z,54.23
2019-06-20T13:51:52.684Z,55.14
2019-06-20T13:54:18.575Z,55.57
2019-06-20T13:56:45.370Z,55.53
2019-06-20T13:59:11.316Z,55.21
2019-06-20T14:01:37.166Z,54.27
2019-06-20T14:04:03.545Z,52.55
2019-06-20T14:06:29.417Z,51.94
2019-06-20T14:08:55.610Z,53.26
2019-06-20T14:11:21.492Z,54.76
2019-06-20T14:13:50.154Z,54.63
2019-06-20T14:16:15.200Z,54.79
2019-06-20T14:18:42.565Z,54.00
2019-06-20T14:21:08.834Z,53.18
2019-06-20T14:23:34.696Z,53.22
2019-06-20T14:26:00.549Z,53.64
2019-06-20T14:28:26.551Z,53.35
2019-06-20T14:30:52.695Z,52.70
2019-06-20T14:33:18.678Z,52.64
2019-06-20T14:35:46.105Z,51.86
2019-06-20T14:38:12.416Z,51.63
2019-06-20T14:40:38.696Z,52.71
2019-06-20T14:43:04.696Z,53.77
2019-06-20T14:45:30.576Z,53.72
2019-06-20T14:47:56.444Z,53.23
2019-06-20T14:50:22.431Z,52.49
2019-06-20T14:52:49.966Z,52.08
2019-06-20T14:55:16.186Z,52.07
2019-06-20T14:57:44.650Z,51.01
2019-06-20T15:00:12.433Z,51.11
2019-06-20T15:02:39.099Z,51.50
2019-06-20T15:05:12.060Z,51.95
2019-06-20T15:07:37.909Z,50.90
2019-06-20T15:10:07.048Z,51.12
2019-06-20T15:12:32.957Z,52.14
2019-06-20T15:14:59.104Z,52.07
2019-06-20T15:17:24.938Z,51.15
2019-06-20T15:19:51.409Z,51.18
2019-06-20T15:22:17.365Z,52.23
2019-06-20T15:24:46.712Z,52.47
2019-06-20T15:27:11.918Z,52.28
2019-06-20T15:29:37.843Z,52.25
2019-06-20T15:32:03.708Z,52.39
2019-06-20T15:34:29.600Z,51.88
2019-06-20T15:36:55.468Z,52.78
2019-06-20T15:39:21.353Z,52.94
2019-06-20T15:41:48.815Z,53.59
2019-06-20T15:44:15.093Z,53.37
2019-06-20T15:46:41.879Z,53.42
2019-06-20T15:49:16.010Z,54.12
2019-06-20T15:51:35.550Z,54.74
2019-06-20T15:54:01.417Z,54.75
2019-06-20T15:56:28.177Z,54.51
2019-06-20T15:58:54.047Z,54.68
2019-06-20T16:01:19.895Z,53.97
2019-06-20T16:03:45.776Z,54.01
2019-06-20T16:06:11.624Z,53.91
2019-06-20T16:08:37.604Z,53.38
2019-06-20T16:11:03.466Z,53.30
2019-06-20T16:13:29.331Z,53.74
2019-06-20T16:15:55.187Z,54.04
2019-06-20T16:18:21.058Z,54.55
2019-06-20T16:20:46.909Z,54.90
2019-06-20T16:23:12.759Z,54.97
2019-06-20T16:25:38.634Z,55.38
2019-06-20T16:28:04.485Z,55.61
2019-06-20T16:30:33.555Z,55.45
2019-06-20T16:32:58.174Z,55.49
2019-06-20T16:35:23.981Z,55.31
2019-06-20T16:37:49.829Z,55.07
2019-06-20T16:40:19.509Z,55.97
2019-06-20T16:42:45.370Z,56.10
2019-06-20T16:45:11.832Z,56.54
2019-06-20T16:47:38.140Z,56.79
2019-06-20T16:50:05.232Z,57.19
2019-06-20T16:52:31.099Z,57.14
2019-06-20T16:54:56.982Z,58.42
2019-06-20T16:57:22.852Z,58.48
2019-06-20T16:59:48.849Z,58.45
2019-06-20T17:02:14.774Z,59.00
2019-06-20T17:04:43.440Z,59.54
2019-06-20T17:07:11.257Z,59.90
2019-06-20T17:09:40.428Z,59.44
2019-06-20T17:12:06.293Z,59.41
2019-06-20T17:14:32.155Z,59.41
2019-06-20T17:16:58.201Z,59.12
2019-06-20T17:19:24.177Z,59.27
2019-06-20T17:21:52.462Z,59.90
2019-06-20T17:24:18.853Z,59.99
2019-06-20T17:26:44.723Z,60.22
2019-06-20T17:29:14.484Z,60.55
2019-06-20T17:31:42.257Z,60.40
2019-06-20T17:34:10.578Z,60.76
2019-06-20T17:36:36.429Z,61.54
2019-06-20T17:39:05.279Z,61.65
2019-06-20T17:41:31.691Z,61.12
2019-06-20T17:44:01.117Z,61.77
2019-06-20T17:46:29.068Z,61.67
2019-06-20T17:48:54.948Z,61.45
2019-06-20T17:51:20.817Z,62.00
2019-06-20T17:53:49.549Z,62.28
2019-06-20T17:56:17.889Z,61.26
2019-06-20T17:58:42.510Z,61.26
2019-06-20T18:01:08.382Z,61.36
2019-06-20T18:03:34.237Z,60.96
2019-06-20T18:06:02.549Z,61.32
2019-06-20T18:08:28.506Z,61.11
2019-06-20T18:10:54.351Z,61.30
2019-06-20T18:13:22.301Z,60.06
2019-06-20T18:15:50.119Z,60.24
2019-06-20T18:18:16.046Z,59.88
2019-06-20T18:20:41.890Z,59.73
2019-06-20T18:23:07.745Z,60.21
2019-06-20T18:25:33.926Z,60.48
2019-06-20T18:28:00.083Z,61.08
2019-06-20T18:30:29.779Z,60.76
2019-06-20T18:32:55.658Z,60.68
2019-06-20T18:35:21.528Z,60.67
2019-06-20T18:37:47.398Z,60.27
2019-06-20T18:40:13.973Z,60.03
2019-06-20T18:42:39.830Z,59.86
2019-06-20T18:45:08.285Z,59.01
2019-06-20T18:47:34.146Z,59.23
2019-06-20T18:49:59.999Z,59.61
2019-06-20T18:52:25.906Z,59.23
2019-06-20T18:54:51.805Z,59.59
2019-06-20T18:57:19.663Z,59.51
2019-06-20T18:59:45.855Z,59.69
2019-06-20T19:02:11.813Z,59.59
2019-06-20T19:04:47.973Z,59.04
2019-06-20T19:07:07.582Z,59.36
2019-06-20T19:09:33.453Z,59.02
2019-06-20T19:11:59.349Z,58.81
2019-06-20T19:14:25.230Z,59.30
2019-06-20T19:16:51.102Z,58.64
2019-06-20T19:19:20.591Z,58.91
2019-06-20T19:21:44.724Z,58.32
2019-06-20T19:24:10.612Z,58.35
2019-06-20T19:26:36.463Z,58.53
2019-06-20T19:29:02.829Z,58.67
2019-06-20T19:31:28.841Z,57.76
2019-06-20T19:33:54.712Z,56.97
2019-06-20T19:36:20.622Z,56.05
2019-06-20T19:38:46.470Z,56.48
2019-06-20T19:41:14.408Z,54.89
2019-06-20T19:43:40.485Z,54.65
2019-06-20T19:46:06.621Z,54.55
2019-06-20T19:48:33.166Z,54.78
2019-06-20T19:51:00.903Z,54.64
2019-06-20T19:53:26.782Z,54.88
2019-06-20T19:55:52.655Z,54.64
2019-06-20T19:58:18.537Z,55.04
2019-06-20T20:00:44.520Z,54.33
2019-06-20T20:03:15.532Z,55.14
2019-06-20T20:05:42.499Z,55.44
2019-06-20T20:08:08.350Z,54.31
2019-06-20T20:10:45.991Z,54.69
2019-06-20T20:13:15.347Z,55.43
2019-06-20T20:15:40.510Z,55.11
2019-06-20T20:18:06.512Z,55.30
2019-06-20T20:20:32.362Z,55.59
2019-06-20T20:22:58.226Z,56.09
2019-06-20T20:25:24.175Z,56.80
2019-06-20T20:27:50.032Z,57.09
2019-06-20T20:30:16.095Z,58.85
2019-06-20T20:32:41.955Z,58.89
2019-06-20T20:35:08.281Z,59.52
2019-06-20T20:37:34.744Z,61.06
2019-06-20T20:40:00.617Z,62.07
2019-06-20T20:42:26.486Z,61.90
2019-06-20T20:44:53.470Z,61.98
2019-06-20T20:47:19.329Z,61.97
2019-06-20T20:49:45.192Z,62.47
2019-06-20T20:52:14.438Z,62.26
2019-06-20T20:54:40.272Z,62.59
2019-06-20T20:57:06.140Z,63.92
2019-06-20T20:59:32.114Z,64.11
2019-06-20T21:01:57.983Z,63.68
2019-06-20T21:04:23.866Z,64.34
2019-06-20T21:06:49.816Z,64.11
2019-06-20T21:09:15.658Z,63.96
2019-06-20T21:11:41.517Z,63.88
2019-06-20T21:14:07.382Z,64.30
2019-06-20T21:16:33.621Z,65.54
2019-06-20T21:18:59.932Z,65.85
2019-06-20T21:21:32.369Z,65.27
2019-06-20T21:23:58.228Z,65.54
2019-06-20T21:26:24.086Z,65.88
2019-06-20T21:28:49.967Z,65.51
2019-06-20T21:31:15.823Z,65.94
2019-06-20T21:33:41.724Z,66.20
2019-06-20T21:36:09.102Z,66.18
2019-06-20T21:38:35.249Z,66.72
2019-06-20T21:41:01.111Z,66.70
2019-06-20T21:43:26.982Z,65.66
2019-06-20T21:45:52.926Z,65.56
2019-06-20T21:48:19.336Z,65.51
2019-06-20T21:50:45.449Z,65.75
2019-06-20T21:53:11.317Z,65.85
2019-06-20T21:55:37.188Z,66.00
2019-06-20T21:58:03.057Z,66.42
2019-06-20T22:00:40.053Z,67.38
2019-06-20T22:03:06.214Z,67.15
2019-06-20T22:05:32.198Z,67.61
2019-06-20T22:07:58.075Z,66.88
2019-06-20T22:10:24.109Z,67.15
2019-06-20T22:12:50.133Z,66.79
2019-06-20T22:15:16.604Z,65.68
2019-06-20T22:17:42.465Z,67.23
2019-06-20T22:20:08.928Z,67.64
2019-06-20T22:22:34.886Z,67.88
2019-06-20T22:25:00.741Z,68.20
2019-06-20T22:27:26.591Z,67.91
2019-06-20T22:29:52.441Z,68.10
2019-06-20T22:32:18.309Z,68.34
2019-06-20T22:34:44.205Z,67.89
2019-06-20T22:37:10.147Z,67.60
2019-06-20T22:39:35.949Z,67.71
2019-06-20T22:42:01.820Z,67.38
2019-06-20T22:44:27.680Z,67.47
2019-06-20T22:46:53.540Z,67.46
2019-06-20T22:49:19.412Z,67.80
2019-06-20T22:51:45.272Z,67.23
2019-06-20T22:54:11.131Z,66.96
2019-06-20T22:56:36.999Z,67.12
2019-06-20T22:59:02.959Z,67.96
2019-06-20T23:01:28.810Z,68.03
2019-06-20T23:03:54.707Z,68.42
2019-06-20T23:06:20.587Z,67.96
2019-06-20T23:08:46.448Z,67.80
2019-06-20T23:11:12.317Z,67.95
2019-06-20T23:13:38.195Z,68.25
2019-06-20T23:16:04.025Z,69.00
2019-06-20T23:18:29.953Z,68.72
2019-06-20T23:21:04.582Z,69.35
2019-06-20T23:23:23.592Z,68.99
2019-06-20T23:25:51.387Z,70.08
2019-06-20T23:28:17.244Z,69.78
2019-06-20T23:30:43.118Z,69.23
2019-06-20T23:33:09.034Z,69.51
2019-06-20T23:35:34.954Z,69.75
2019-06-20T23:38:00.839Z,70.39
2019-06-20T23:40:27.601Z,69.96
2019-06-20T23:42:55.436Z,69.62
2019-06-20T23:45:21.456Z,69.94
2019-06-20T23:47:47.329Z,68.95
2019-06-20T23:50:19.377Z,69.93
2019-06-20T23:52:48.531Z,69.43
2019-06-20T23:55:14.334Z,69.46
2019-06-20T23:57:40.198Z,69.85
